Dewey, Arizona
Current Conditions -  °F | °C
As of 4:53 PM on Friday 24 Oct 2014 (Local Time) from KPRC Reporting Station
Clear Clear  
Wind Chill: 77°   Ceiling: Unl
Heat Index: 77°   Visibility: 10mi
Dew Point: 34°   Wind: 5mph
Humidity: 21%   Direction: 190°S
Pressure: 30.2"   Gusts: NA
Location:  34.53°N, 112.24°W
Report Text: KPRC 242353Z 19004KT 10SM CLR 25/01 A3020 RMK AO2 SLP164 T02500011 10272 20222 56007
Loading
Personal Weather Stations






























Interactive Weather Map
Tropical Storm Tracking
New forecast layout! Learn more

10-Day Weather Forecast

Advertisements
Track Severe Weather on mobile